Time;durP1;ratioP1;P1;durP2;ratioP2;P2;SDS_P1;SDS_P2;PMS_P1;PMS_P2;Temp;Humidity;BMP_temperature;BMP_pressure;BME280_temperature;BME280_humidity;BME280_pressure;Samples;Min_cycle;Max_cycle;Signal;HPM_P1;HPM_P2
2022/11/14 00:01:57;;;;;;;;;;;;;;;5.05;40.79;95445.81;4988831;28;20354;-71
2022/11/14 00:04:23;;;;;;;;;;;;;;;4.75;41.64;95442.47;4986651;28;20024;-71
2022/11/14 00:06:48;;;;;;;;;;;;;;;4.87;41.57;95430.78;4990187;28;19974;-71
2022/11/14 00:09:13;;;;;;;;;;;;;;;5.00;41.79;95437.50;4989165;28;19989;-71
2022/11/14 00:11:38;;;;;;;;;;;;;;;5.18;40.55;95430.50;4988705;28;20002;-71
2022/11/14 00:14:03;;;;;;;;;;;;;;;5.14;40.78;95429.09;4989804;28;20889;-71
2022/11/14 00:16:29;;;;;;;;;;;;;;;5.11;41.10;95428.59;4991211;28;20459;-71
2022/11/14 00:18:54;;;;;;;;;;;;;;;5.13;40.65;95427.44;4988892;28;19974;-71
2022/11/14 00:21:19;;;;;;;;;;;;;;;5.07;41.34;95418.31;4990591;28;20198;-71
2022/11/14 00:23:44;;;;;;;;;;;;;;;5.00;41.43;95422.50;4990358;28;20427;-71
2022/11/14 00:26:10;;;;;;;;;;;;;;;5.12;41.49;95422.31;4996443;28;20217;-71
2022/11/14 00:28:35;;;;;;;;;;;;;;;5.11;41.59;95420.66;4995611;28;20071;-71
2022/11/14 00:31:00;;;;;;;;;;;;;;;4.90;42.18;95425.19;4991532;28;20037;-71
2022/11/14 00:33:25;;;;;;;;;;;;;;;4.73;42.93;95416.25;4992403;28;20424;-71
2022/11/14 00:35:54;;;;;;;;;;;;;;;4.90;42.59;95413.81;4991931;28;20484;-71
2022/11/14 00:38:19;;;;;;;;;;;;;;;4.75;42.81;95414.31;4990442;28;20024;-71
2022/11/14 00:40:45;;;;;;;;;;;;;;;4.89;42.64;95404.22;4993212;28;20524;-71
2022/11/14 00:43:10;;;;;;;;;;;;;;;4.51;43.70;95399.84;4992314;28;20001;-71
2022/11/14 00:45:35;;;;;;;;;;;;;;;4.74;42.70;95401.25;4991784;28;19973;-65
2022/11/14 00:48:00;;;;;;;;;;;;;;;4.69;42.77;95393.78;4993545;28;19989;-71
2022/11/14 00:50:25;;;;;;;;;;;;;;;4.84;42.86;95397.59;4993790;28;20052;-71
2022/11/14 00:52:51;;;;;;;;;;;;;;;4.60;43.66;95395.50;4992055;28;20143;-71
2022/11/14 00:55:16;;;;;;;;;;;;;;;4.62;43.77;95387.44;4992124;28;20470;-71
2022/11/14 00:57:41;;;;;;;;;;;;;;;4.44;43.77;95383.78;4990301;28;20319;-71
2022/11/14 01:00:07;;;;;;;;;;;;;;;4.71;43.17;95390.03;4992766;28;19998;-71
2022/11/14 01:02:32;;;;;;;;;;;;;;;4.37;44.25;95387.13;4992156;28;19974;-72
2022/11/14 01:04:57;;;;;;;;;;;;;;;4.54;44.42;95380.25;4989659;28;20167;-71
2022/11/14 01:07:22;;;;;;;;;;;;;;;4.60;44.00;95384.97;4996445;28;19998;-71
2022/11/14 01:09:48;;;;;;;;;;;;;;;4.93;42.69;95384.50;5000017;28;20023;-71
2022/11/14 01:12:13;;;;;;;;;;;;;;;4.70;43.82;95390.19;4993533;28;20426;-71
2022/11/14 01:14:39;;;;;;;;;;;;;;;4.71;43.40;95376.84;4984413;28;20329;-72
2022/11/14 01:17:04;;;;;;;;;;;;;;;4.70;43.60;95375.16;4986524;28;20438;-71
2022/11/14 01:19:30;;;;;;;;;;;;;;;4.96;42.77;95363.94;4991270;28;20290;-71
2022/11/14 01:21:55;;;;;;;;;;;;;;;5.11;42.69;95366.09;4996735;28;19986;-72
2022/11/14 01:24:20;;;;;;;;;;;;;;;4.76;43.62;95365.03;4994471;28;20059;-71
2022/11/14 01:26:45;;;;;;;;;;;;;;;4.65;43.05;95355.50;4990760;28;20037;-71
2022/11/14 01:29:11;;;;;;;;;;;;;;;4.75;43.16;95350.16;4993815;28;20439;-71
2022/11/14 01:31:36;;;;;;;;;;;;;;;4.69;43.83;95354.22;4992233;28;20006;-71
2022/11/14 01:34:01;;;;;;;;;;;;;;;4.68;43.01;95356.03;4988841;28;20024;-71
2022/11/14 01:36:26;;;;;;;;;;;;;;;4.78;43.11;95348.06;4991745;28;20001;-71
2022/11/14 01:38:52;;;;;;;;;;;;;;;4.81;42.90;95354.84;4991518;28;19966;-71
2022/11/14 01:41:17;;;;;;;;;;;;;;;4.37;44.16;95342.31;4990441;28;20358;-71
2022/11/14 01:43:43;;;;;;;;;;;;;;;4.55;43.68;95337.09;4990096;28;20000;-71
2022/11/14 01:46:14;;;;;;;;;;;;;;;4.68;43.24;95340.22;4993215;28;20516;-71
2022/11/14 01:48:53;;;;;;;;;;;;;;;4.72;43.47;95338.09;4991292;28;20055;-72
2022/11/14 01:51:26;;;;;;;;;;;;;;;4.55;43.18;95332.66;4991928;28;20033;-71
2022/11/14 01:53:52;;;;;;;;;;;;;;;4.33;43.77;95328.59;4989055;28;20040;-72
2022/11/14 01:56:18;;;;;;;;;;;;;;;4.26;44.62;95325.72;4993030;28;20438;-72
2022/11/14 01:58:45;;;;;;;;;;;;;;;4.52;43.96;95327.66;4993093;28;19980;-72
2022/11/14 02:01:10;;;;;;;;;;;;;;;4.32;43.63;95316.41;4991828;28;20510;-75
2022/11/14 02:03:36;;;;;;;;;;;;;;;4.63;42.52;95305.53;4999562;28;20005;-72
2022/11/14 02:06:02;;;;;;;;;;;;;;;4.33;44.02;95307.53;5001077;28;19969;-72
2022/11/14 02:08:27;;;;;;;;;;;;;;;4.45;43.70;95295.78;5003460;28;19993;-71
2022/11/14 02:10:52;;;;;;;;;;;;;;;4.34;43.71;95303.91;4998621;28;19986;-73
2022/11/14 02:13:17;;;;;;;;;;;;;;;3.91;45.25;95296.44;5001365;28;20419;-70
2022/11/14 02:15:43;;;;;;;;;;;;;;;3.83;45.49;95296.34;5001164;28;20526;-72
2022/11/14 02:18:08;;;;;;;;;;;;;;;4.20;44.11;95299.94;5000855;28;19966;-73
2022/11/14 02:20:35;;;;;;;;;;;;;;;4.31;44.00;95288.38;4999162;28;19990;-75
2022/11/14 02:23:00;;;;;;;;;;;;;;;4.07;43.69;95285.31;5005342;28;20008;-72
2022/11/14 02:25:25;;;;;;;;;;;;;;;3.84;45.56;95294.53;4999532;28;19970;-74
2022/11/14 02:27:50;;;;;;;;;;;;;;;4.02;44.60;95281.44;5004070;28;19997;-72
2022/11/14 02:30:17;;;;;;;;;;;;;;;4.01;45.26;95290.31;5000725;28;20034;-72
2022/11/14 02:32:42;;;;;;;;;;;;;;;4.01;44.43;95282.44;4998994;28;20025;-73
2022/11/14 02:35:07;;;;;;;;;;;;;;;3.99;45.23;95271.19;5002729;28;19996;-70
2022/11/14 02:37:33;;;;;;;;;;;;;;;3.85;45.39;95272.50;5002106;28;20068;-72
2022/11/14 02:39:58;;;;;;;;;;;;;;;3.97;45.11;95273.13;5004288;28;20373;-71
2022/11/14 02:42:23;;;;;;;;;;;;;;;4.14;44.70;95264.47;5005173;28;20069;-73
2022/11/14 02:44:48;;;;;;;;;;;;;;;4.00;45.22;95259.66;5006464;28;19997;-72
2022/11/14 02:47:14;;;;;;;;;;;;;;;3.86;45.13;95258.34;5013518;28;19994;-73
2022/11/14 02:49:39;;;;;;;;;;;;;;;3.90;44.66;95257.91;5008693;28;19978;-74
2022/11/14 02:52:04;;;;;;;;;;;;;;;3.80;45.77;95249.22;4997175;28;20009;-72
2022/11/14 02:54:29;;;;;;;;;;;;;;;3.64;46.06;95253.28;4998155;28;20035;-71
2022/11/14 02:56:55;;;;;;;;;;;;;;;3.49;46.77;95263.44;5003185;28;20129;-72
2022/11/14 02:59:20;;;;;;;;;;;;;;;3.65;45.96;95254.97;5004402;28;19994;-71
2022/11/14 03:01:45;;;;;;;;;;;;;;;3.68;46.40;95253.84;5009755;28;19974;-75
2022/11/14 03:04:10;;;;;;;;;;;;;;;3.63;45.81;95261.31;5006999;28;20002;-71
2022/11/14 03:06:36;;;;;;;;;;;;;;;3.70;45.85;95256.34;5003021;28;19966;-73
2022/11/14 03:09:01;;;;;;;;;;;;;;;3.48;46.45;95255.69;5003433;28;19994;-73
2022/11/14 03:11:26;;;;;;;;;;;;;;;3.26;46.97;95245.31;4998821;28;20002;-73
2022/11/14 03:13:51;;;;;;;;;;;;;;;3.66;46.65;95245.25;5004235;28;19977;-72
2022/11/14 03:16:16;;;;;;;;;;;;;;;3.50;46.90;95245.88;4998896;28;20001;-72
2022/11/14 03:18:42;;;;;;;;;;;;;;;3.42;46.61;95249.16;4999960;28;20076;-72
2022/11/14 03:21:08;;;;;;;;;;;;;;;3.33;47.13;95245.56;4998258;28;20016;-71
2022/11/14 03:23:33;;;;;;;;;;;;;;;3.29;47.27;95244.19;5003113;28;20001;-72
2022/11/14 03:25:59;;;;;;;;;;;;;;;3.42;46.43;95234.22;5004305;28;19977;-74
2022/11/14 03:28:25;;;;;;;;;;;;;;;3.61;46.44;95221.97;5003936;28;19990;-74
2022/11/14 03:30:50;;;;;;;;;;;;;;;3.50;46.40;95220.34;5006117;28;20465;-71
2022/11/14 03:33:15;;;;;;;;;;;;;;;3.38;46.97;95217.03;5009189;28;19997;-74
2022/11/14 03:35:41;;;;;;;;;;;;;;;3.37;46.85;95223.25;5009730;28;20073;-71
2022/11/14 03:38:06;;;;;;;;;;;;;;;3.53;46.53;95220.06;5010147;28;19970;-71
2022/11/14 03:40:32;;;;;;;;;;;;;;;3.58;46.43;95217.03;5010724;28;19994;-71
2022/11/14 03:42:57;;;;;;;;;;;;;;;3.19;47.23;95222.34;5007657;28;19966;-70
2022/11/14 03:45:22;;;;;;;;;;;;;;;3.52;46.28;95225.47;5010502;28;19982;-71
2022/11/14 03:47:47;;;;;;;;;;;;;;;3.34;46.66;95230.63;5011472;28;20018;-71
2022/11/14 03:50:13;;;;;;;;;;;;;;;3.28;46.84;95224.97;5014973;28;19978;-71
2022/11/14 03:52:38;;;;;;;;;;;;;;;3.23;46.85;95236.88;5018711;28;19982;-71
2022/11/14 03:55:03;;;;;;;;;;;;;;;3.13;48.30;95232.44;5011669;28;20047;-71
2022/11/14 03:57:28;;;;;;;;;;;;;;;3.06;49.10;95233.16;5014958;28;20089;-70
2022/11/14 03:59:54;;;;;;;;;;;;;;;3.28;47.06;95237.28;5022356;28;19992;-71
2022/11/14 04:02:19;;;;;;;;;;;;;;;3.36;46.53;95233.94;5012792;28;19974;-70
2022/11/14 04:04:44;;;;;;;;;;;;;;;3.12;48.07;95228.16;5019271;28;19994;-70
2022/11/14 04:07:09;;;;;;;;;;;;;;;3.05;47.86;95227.06;5013173;28;19990;-70
2022/11/14 04:09:35;;;;;;;;;;;;;;;3.23;47.71;95231.63;5009951;28;20080;-71
2022/11/14 04:12:00;;;;;;;;;;;;;;;3.35;46.93;95222.59;5008356;28;20006;-72
2022/11/14 04:14:25;;;;;;;;;;;;;;;3.38;47.39;95226.72;5022852;28;19976;-71
2022/11/14 04:16:50;;;;;;;;;;;;;;;3.10;47.41;95219.56;5014338;28;19997;-70
2022/11/14 04:19:16;;;;;;;;;;;;;;;3.09;47.56;95217.13;5017735;28;20061;-70
2022/11/14 04:21:41;;;;;;;;;;;;;;;3.25;47.54;95219.13;5017321;28;19980;-72
2022/11/14 04:24:06;;;;;;;;;;;;;;;3.26;47.04;95220.78;5018776;28;20020;-72
2022/11/14 04:26:31;;;;;;;;;;;;;;;3.17;47.40;95209.34;5016779;28;19993;-70
2022/11/14 04:28:57;;;;;;;;;;;;;;;2.78;48.34;95211.03;5013114;28;20001;-71
2022/11/14 04:31:22;;;;;;;;;;;;;;;3.10;47.18;95213.50;5003784;28;20001;-71
2022/11/14 04:33:47;;;;;;;;;;;;;;;3.25;47.34;95216.50;5014751;28;19978;-71
2022/11/14 04:36:12;;;;;;;;;;;;;;;3.19;47.63;95199.50;5017568;28;19994;-70
2022/11/14 04:38:38;;;;;;;;;;;;;;;3.10;47.48;95197.72;5018550;28;19981;-73
2022/11/14 04:41:03;;;;;;;;;;;;;;;3.34;47.38;95196.41;5014283;28;20009;-73
2022/11/14 04:43:28;;;;;;;;;;;;;;;3.13;47.39;95193.00;5021976;28;20044;-73
2022/11/14 04:45:54;;;;;;;;;;;;;;;2.82;47.90;95195.81;5022407;28;19969;-73
2022/11/14 04:48:19;;;;;;;;;;;;;;;3.04;47.75;95189.41;5019485;28;19994;-73
2022/11/14 04:50:45;;;;;;;;;;;;;;;3.07;47.66;95193.56;5021292;28;19986;-70
2022/11/14 04:53:10;;;;;;;;;;;;;;;2.86;48.14;95193.75;5017675;28;19993;-70
2022/11/14 04:55:35;;;;;;;;;;;;;;;2.84;48.53;95188.63;5015996;28;19994;-73
2022/11/14 04:58:01;;;;;;;;;;;;;;;2.93;48.40;95189.59;5016769;28;20001;-70
2022/11/14 05:00:26;;;;;;;;;;;;;;;2.86;47.99;95181.41;5018507;28;19994;-70
2022/11/14 05:02:51;;;;;;;;;;;;;;;3.01;48.04;95181.81;5015667;28;19973;-71
2022/11/14 05:05:17;;;;;;;;;;;;;;;2.78;47.86;95178.66;5015715;28;19994;-70
2022/11/14 05:07:42;;;;;;;;;;;;;;;2.62;50.58;95179.22;5019516;28;20001;-71
2022/11/14 05:10:07;;;;;;;;;;;;;;;3.07;47.55;95183.06;5013938;28;19962;-71
2022/11/14 05:12:33;;;;;;;;;;;;;;;2.91;47.41;95176.56;5017847;28;19985;-72
2022/11/14 05:14:58;;;;;;;;;;;;;;;2.81;49.30;95167.84;5022853;28;19971;-72
2022/11/14 05:17:23;;;;;;;;;;;;;;;2.65;48.83;95158.75;5021048;28;20284;-73
2022/11/14 05:19:48;;;;;;;;;;;;;;;2.14;51.34;95171.16;5012779;28;19978;-73
2022/11/14 05:22:14;;;;;;;;;;;;;;;2.61;49.91;95167.88;5008568;28;19982;-73
2022/11/14 05:24:39;;;;;;;;;;;;;;;2.31;50.63;95160.97;5011880;28;19994;-73
2022/11/14 05:27:04;;;;;;;;;;;;;;;2.55;50.22;95168.41;5011744;28;19982;-73
2022/11/14 05:29:29;;;;;;;;;;;;;;;2.58;49.92;95157.63;5015411;28;20028;-74
2022/11/14 05:31:55;;;;;;;;;;;;;;;2.74;49.10;95170.22;5018937;28;20320;-74
2022/11/14 05:34:20;;;;;;;;;;;;;;;2.74;49.48;95164.97;5018987;28;20054;-73
2022/11/14 05:36:45;;;;;;;;;;;;;;;2.87;49.09;95169.94;5017512;28;20005;-73
2022/11/14 05:39:10;;;;;;;;;;;;;;;2.94;48.39;95174.63;5020512;28;20167;-73
2022/11/14 05:41:36;;;;;;;;;;;;;;;2.24;53.96;95177.25;5018646;28;20025;-73
2022/11/14 05:44:03;;;;;;;;;;;;;;;2.98;48.89;95168.09;5020880;28;19982;-73
2022/11/14 05:46:28;;;;;;;;;;;;;;;2.58;50.35;95162.88;5016220;28;19979;-74
2022/11/14 05:48:53;;;;;;;;;;;;;;;3.02;48.62;95161.59;5016473;28;20001;-74
2022/11/14 05:51:18;;;;;;;;;;;;;;;2.84;49.33;95172.84;5016242;28;20012;-75
2022/11/14 05:53:44;;;;;;;;;;;;;;;2.87;49.04;95176.97;5017529;28;20163;-72
2022/11/14 05:56:10;;;;;;;;;;;;;;;2.56;51.33;95164.84;5019089;28;20077;-72
2022/11/14 05:58:35;;;;;;;;;;;;;;;2.64;51.84;95177.28;5017831;28;19978;-72
2022/11/14 06:01:07;;;;;;;;;;;;;;;2.81;50.14;95175.75;5015847;28;19994;-73
2022/11/14 06:03:33;;;;;;;;;;;;;;;2.69;50.85;95182.94;5024137;28;19986;-73
2022/11/14 06:08:33;;;;;;;;;;;;;;;3.10;51.52;95171.41;3350490;26;20004;-95
2022/11/14 06:11:02;;;;;;;;;;;;;;;3.01;51.81;95167.81;5009942;28;20254;-93
2022/11/14 06:13:27;;;;;;;;;;;;;;;3.13;50.95;95171.13;5014100;28;19973;-95
2022/11/14 06:15:53;;;;;;;;;;;;;;;3.37;50.35;95165.38;5028841;28;20120;-93
2022/11/14 06:18:18;;;;;;;;;;;;;;;3.63;50.45;95171.81;5027919;28;20349;-94
2022/11/14 06:20:43;;;;;;;;;;;;;;;3.68;49.18;95162.50;5029065;28;19990;-94
2022/11/14 06:23:09;;;;;;;;;;;;;;;3.98;47.84;95158.91;5006928;28;20040;-92
2022/11/14 06:25:34;;;;;;;;;;;;;;;3.94;48.02;95161.00;5006636;28;19976;-95
2022/11/14 06:27:59;;;;;;;;;;;;;;;3.87;49.16;95159.91;4996252;28;20455;-93
2022/11/14 06:30:24;;;;;;;;;;;;;;;3.51;50.13;95153.56;5003542;28;19986;-94
2022/11/14 06:32:55;;;;;;;;;;;;;;;3.77;48.72;95163.44;5020271;28;20011;-95
2022/11/14 06:35:20;;;;;;;;;;;;;;;3.75;49.17;95154.88;5021725;28;20075;-95
2022/11/14 06:37:45;;;;;;;;;;;;;;;4.31;46.68;95157.44;5005343;28;19974;-94
2022/11/14 06:40:10;;;;;;;;;;;;;;;3.73;49.87;95159.44;5020549;28;20016;-94
2022/11/14 06:42:36;;;;;;;;;;;;;;;3.62;49.79;95164.91;5005493;28;19977;-92
2022/11/14 06:45:01;;;;;;;;;;;;;;;3.56;49.85;95171.56;5004780;28;19993;-93
2022/11/14 06:47:26;;;;;;;;;;;;;;;3.83;49.33;95169.09;5003740;28;20048;-93
2022/11/14 06:49:51;;;;;;;;;;;;;;;4.10;47.63;95162.97;5003464;28;19974;-94
2022/11/14 06:52:17;;;;;;;;;;;;;;;4.22;48.77;95162.78;5004987;28;20293;-93
2022/11/14 06:54:42;;;;;;;;;;;;;;;4.04;48.47;95169.66;5003602;28;19974;-92
2022/11/14 06:57:07;;;;;;;;;;;;;;;4.11;48.86;95164.63;4984798;28;20421;-94
2022/11/14 06:59:32;;;;;;;;;;;;;;;4.49;47.05;95156.59;4992011;28;20236;-93
2022/11/14 07:01:58;;;;;;;;;;;;;;;3.87;49.16;95159.91;5019589;28;20078;-93
2022/11/14 07:04:35;;;;;;;;;;;;;;;4.09;49.21;95156.06;5021358;28;20592;-92
2022/11/14 07:07:00;;;;;;;;;;;;;;;4.14;48.89;95150.31;5020058;28;20608;-93
2022/11/14 07:09:25;;;;;;;;;;;;;;;4.37;47.19;95157.81;5004837;28;20180;-94
2022/11/14 07:11:51;;;;;;;;;;;;;;;4.02;49.05;95150.53;5019423;28;20043;-94
2022/11/14 07:14:16;;;;;;;;;;;;;;;3.93;48.89;95149.63;5004171;28;20024;-92
2022/11/14 07:16:41;;;;;;;;;;;;;;;3.81;49.53;95142.88;4989774;28;20001;-93
2022/11/14 07:19:09;;;;;;;;;;;;;;;3.84;49.02;95145.25;5002646;28;20002;-93
2022/11/14 07:21:35;;;;;;;;;;;;;;;4.37;47.85;95147.25;5005397;28;20468;-92
2022/11/14 07:24:00;;;;;;;;;;;;;;;3.81;49.29;95132.34;5017776;28;19994;-93
2022/11/14 07:26:25;;;;;;;;;;;;;;;3.71;49.52;95142.13;5001977;28;19973;-92
2022/11/14 07:28:51;;;;;;;;;;;;;;;3.61;50.12;95143.00;5002854;28;19993;-94
2022/11/14 07:31:16;;;;;;;;;;;;;;;3.96;49.22;95124.81;5005944;28;20001;-95
2022/11/14 07:33:42;;;;;;;;;;;;;;;3.42;49.89;95130.72;5032929;28;19978;-95
2022/11/14 07:36:07;;;;;;;;;;;;;;;3.69;49.87;95137.00;5030980;28;19989;-95
2022/11/14 07:38:33;;;;;;;;;;;;;;;3.63;49.72;95129.69;5026886;28;19966;-94
2022/11/14 07:40:59;;;;;;;;;;;;;;;3.65;49.45;95133.84;5016532;28;19994;-95
2022/11/14 07:43:24;;;;;;;;;;;;;;;3.68;50.53;95138.81;5010904;28;19994;-95
2022/11/14 07:47:09;;;;;;;;;;;;;;;3.78;49.88;95137.94;5033192;28;19965;-95
2022/11/14 07:55:50;;;;;;;;;;;;;;;4.28;47.66;95165.63;4999931;28;20337;-94
2022/11/14 07:58:32;;;;;;;;;;;;;;;4.29;47.83;95161.19;4978848;28;19984;-96
2022/11/14 08:01:13;;;;;;;;;;;;;;;4.52;47.60;95166.84;5011678;28;20075;-94
2022/11/14 08:03:38;;;;;;;;;;;;;;;4.48;49.98;95175.19;5027121;28;19990;-94
2022/11/14 08:13:31;;;;;;;;;;;;;;;;;;;;;
2022/11/14 08:22:19;;;;;;;;;;;;;;;4.63;47.31;95157.06;4928435;28;20069;-95
2022/11/14 08:25:02;;;;;;;;;;;;;;;4.92;46.36;95161.22;4961083;28;20366;-96
2022/11/14 08:27:46;;;;;;;;;;;;;;;;;;;;;
2022/11/14 08:37:00;;;;;;;;;;;;;;;5.20;46.11;95164.59;5024855;28;19973;-95
2022/11/14 08:42:27;;;;;;;;;;;;;;;5.33;46.00;95169.47;5012633;28;20015;-94
2022/11/14 08:44:53;;;;;;;;;;;;;;;5.42;46.21;95172.13;4999014;28;20912;-95
2022/11/14 08:47:18;;;;;;;;;;;;;;;5.54;46.42;95173.53;5064642;23;20033;-73
2022/11/14 08:49:43;;;;;;;;;;;;;;;5.74;44.94;95176.75;5021332;28;20104;-74
2022/11/14 08:52:08;;;;;;;;;;;;;;;5.67;45.05;95178.38;5021514;28;20004;-74
2022/11/14 08:54:34;;;;;;;;;;;;;;;5.70;45.89;95180.72;5039910;28;20191;-72
2022/11/14 08:56:59;;;;;;;;;;;;;;;5.50;45.33;95174.00;5021080;28;20452;-75
2022/11/14 08:59:24;;;;;;;;;;;;;;;5.65;45.09;95184.81;5021337;28;19994;-73
2022/11/14 09:01:50;;;;;;;;;;;;;;;5.88;44.20;95168.41;5022688;28;20001;-70
2022/11/14 09:04:15;;;;;;;;;;;;;;;5.99;43.61;95161.00;5020727;28;20001;-73
2022/11/14 09:06:40;;;;;;;;;;;;;;;5.82;44.44;95160.09;5026131;28;20012;-73
2022/11/14 09:09:06;;;;;;;;;;;;;;;5.94;44.16;95155.38;5025656;28;20120;-71
2022/11/14 09:11:31;;;;;;;;;;;;;;;5.54;45.37;95162.16;5020741;28;20043;-73
2022/11/14 09:13:56;;;;;;;;;;;;;;;5.61;45.95;95161.34;5025298;28;19974;-74
2022/11/14 09:16:21;;;;;;;;;;;;;;;5.82;45.12;95159.28;5022786;28;20357;-75
2022/11/14 09:18:46;;;;;;;;;;;;;;;6.28;43.92;95166.84;5021728;28;20084;-72
2022/11/14 09:21:12;;;;;;;;;;;;;;;6.44;44.14;95152.84;5025971;28;20040;-72
2022/11/14 09:23:37;;;;;;;;;;;;;;;6.81;43.45;95155.22;5033607;28;20015;-73
2022/11/14 09:26:03;;;;;;;;;;;;;;;7.07;42.59;95156.84;5041800;28;19969;-74
2022/11/14 09:28:28;;;;;;;;;;;;;;;7.13;42.65;95172.06;5040149;28;20601;-72
2022/11/14 09:30:58;;;;;;;;;;;;;;;6.90;42.68;95172.72;5024261;28;19973;-72
2022/11/14 09:33:23;;;;;;;;;;;;;;;7.17;41.94;95180.50;5040086;28;20329;-74
2022/11/14 09:35:54;;;;;;;;;;;;;;;7.25;41.46;95181.31;5040551;28;20008;-73
2022/11/14 09:38:19;;;;;;;;;;;;;;;6.81;42.84;95179.03;5034136;28;20021;-75
2022/11/14 09:41:14;;;;;;;;;;;;;;;7.06;42.60;95179.00;5040969;28;20071;-73
2022/11/14 09:43:58;;;;;;;;;;;;;;;6.67;42.64;95181.34;5025296;28;20529;-75
2022/11/14 09:46:24;;;;;;;;;;;;;;;6.64;42.69;95186.97;5047104;28;20035;-75
2022/11/14 09:48:50;;;;;;;;;;;;;;;6.65;43.01;95191.25;5048944;28;20091;-73
2022/11/14 09:51:19;;;;;;;;;;;;;;;6.86;42.44;95190.78;5046333;28;20556;-77
2022/11/14 09:53:50;;;;;;;;;;;;;;;6.76;43.12;95187.44;5052413;28;20071;-73
2022/11/14 09:56:18;;;;;;;;;;;;;;;6.92;42.91;95170.75;5065999;28;20468;-76
2022/11/14 09:58:43;;;;;;;;;;;;;;;6.98;42.30;95188.63;5051149;28;20004;-74
2022/11/14 10:01:08;;;;;;;;;;;;;;;7.00;43.04;95191.09;5030100;28;20035;-75
2022/11/14 10:03:33;;;;;;;;;;;;;;;7.22;42.31;95192.25;5064822;28;20068;-76
2022/11/14 10:06:02;;;;;;;;;;;;;;;6.94;43.33;95189.13;5061174;28;19969;-72
2022/11/14 10:08:39;;;;;;;;;;;;;;;6.93;43.60;95198.88;5045706;28;19995;-76
2022/11/14 10:11:09;;;;;;;;;;;;;;;6.55;45.39;95206.44;5059184;28;20452;-74
2022/11/14 10:13:54;;;;;;;;;;;;;;;6.79;43.91;95189.78;5027306;28;19971;-75
2022/11/14 10:16:26;;;;;;;;;;;;;;;6.68;43.56;95185.63;5065952;28;19996;-72
2022/11/14 10:19:03;;;;;;;;;;;;;;;6.89;43.40;95184.31;5048316;28;20433;-74
2022/11/14 10:21:41;;;;;;;;;;;;;;;7.17;42.37;95186.63;5062854;28;20160;-76
2022/11/14 10:24:25;;;;;;;;;;;;;;;7.17;42.76;95176.03;5064278;28;19992;-74
2022/11/14 10:27:00;;;;;;;;;;;;;;;6.67;43.63;95178.69;5061790;28;20420;-74
2022/11/14 10:29:26;;;;;;;;;;;;;;;6.93;42.86;95180.34;5043573;28;19961;-74
2022/11/14 10:31:53;;;;;;;;;;;;;;;6.82;43.71;95175.38;5065290;28;21366;-75
2022/11/14 10:34:26;;;;;;;;;;;;;;;6.90;43.57;95170.09;5057222;28;20587;-72
2022/11/14 10:36:54;;;;;;;;;;;;;;;6.96;44.65;95156.19;5069884;28;20494;-72
2022/11/14 10:39:46;;;;;;;;;;;;;;;6.93;45.21;95164.47;5062608;28;20087;-73
2022/11/14 10:42:13;;;;;;;;;;;;;;;7.27;42.88;95159.94;5059219;28;20480;-76
2022/11/14 10:44:45;;;;;;;;;;;;;;;6.86;44.64;95163.47;5037733;28;19989;-76
2022/11/14 10:47:12;;;;;;;;;;;;;;;7.24;43.67;95163.78;5058702;28;19997;-73
2022/11/14 10:49:37;;;;;;;;;;;;;;;7.59;43.09;95160.06;5049022;28;20340;-75
2022/11/14 10:52:04;;;;;;;;;;;;;;;7.87;42.22;95155.19;5050567;28;19988;-74
2022/11/14 10:54:29;;;;;;;;;;;;;;;7.73;43.18;95153.22;5059544;28;19977;-75
2022/11/14 10:56:54;;;;;;;;;;;;;;;7.90;43.15;95146.06;5057917;28;20453;-75
2022/11/14 10:59:20;;;;;;;;;;;;;;;8.34;41.19;95133.22;5056967;28;21211;-75
2022/11/14 11:01:54;;;;;;;;;;;;;;;8.36;41.44;95124.09;5057406;28;20050;-73
2022/11/14 11:04:22;;;;;;;;;;;;;;;8.33;41.49;95136.88;5058725;28;20311;-73
2022/11/14 11:06:54;;;;;;;;;;;;;;;8.59;41.29;95131.22;5056081;28;19976;-75
2022/11/14 11:12:04;;;;;;;;;;;;;;;9.04;39.54;95130.56;5048244;28;20021;-74
2022/11/14 11:14:30;;;;;;;;;;;;;;;9.23;39.02;95123.91;5049201;28;19970;-73
2022/11/14 11:17:10;;;;;;;;;;;;;;;9.09;39.53;95136.16;5036390;28;19995;-75
2022/11/14 11:19:36;;;;;;;;;;;;;;;9.22;39.52;95140.03;5057349;28;19985;-75
2022/11/14 11:22:01;;;;;;;;;;;;;;;9.11;40.82;95131.47;5057358;28;19996;-74
2022/11/14 11:24:30;;;;;;;;;;;;;;;8.41;41.23;95136.84;5037217;28;20538;-75
2022/11/14 11:27:14;;;;;;;;;;;;;;;8.32;42.67;95132.59;5054152;28;20676;-72
2022/11/14 11:29:40;;;;;;;;;;;;;;;8.65;39.71;95127.03;5052196;28;19965;-72
2022/11/14 11:32:06;;;;;;;;;;;;;;;8.74;39.97;95125.16;5053453;28;20004;-74
2022/11/14 11:34:31;;;;;;;;;;;;;;;7.99;42.27;95129.09;5035536;28;20359;-73
2022/11/14 11:36:58;;;;;;;;;;;;;;;7.86;41.37;95134.97;5055166;28;19985;-72
2022/11/14 11:39:26;;;;;;;;;;;;;;;7.77;42.21;95123.59;5036287;28;19985;-74
2022/11/14 11:41:52;;;;;;;;;;;;;;;7.97;41.41;95123.16;5039052;28;19985;-73
2022/11/14 11:44:18;;;;;;;;;;;;;;;7.83;42.39;95121.25;5042630;28;20083;-73
2022/11/14 11:46:43;;;;;;;;;;;;;;;7.82;42.20;95122.25;5038380;28;20111;-72
2022/11/14 11:49:19;;;;;;;;;;;;;;;8.19;42.12;95115.41;5022060;28;19993;-72
2022/11/14 11:51:44;;;;;;;;;;;;;;;8.28;41.57;95111.72;5036560;28;19991;-74
2022/11/14 11:54:14;;;;;;;;;;;;;;;8.27;41.77;95112.69;5020992;28;19977;-72
2022/11/14 11:56:39;;;;;;;;;;;;;;;8.40;40.87;95098.84;5050597;28;19989;-74
2022/11/14 11:59:10;;;;;;;;;;;;;;;8.13;42.10;95105.53;5047791;28;20046;-73
2022/11/14 12:01:35;;;;;;;;;;;;;;;8.43;41.03;95110.94;5036593;28;20092;-73
2022/11/14 12:04:02;;;;;;;;;;;;;;;8.02;42.84;95117.31;5044683;28;20119;-72
2022/11/14 12:06:27;;;;;;;;;;;;;;;8.02;42.07;95114.69;5053768;28;20441;-74
2022/11/14 12:09:06;;;;;;;;;;;;;;;8.28;41.30;95114.38;5037511;28;19984;-73
2022/11/14 12:11:33;;;;;;;;;;;;;;;8.19;41.45;95115.41;5052455;28;20523;-72
2022/11/14 12:14:01;;;;;;;;;;;;;;;7.72;42.40;95106.53;5055071;28;20027;-74
2022/11/14 12:16:32;;;;;;;;;;;;;;;7.72;42.38;95099.38;5037682;28;20513;-74
2022/11/14 12:19:04;;;;;;;;;;;;;;;7.89;42.12;95099.34;5056067;28;19993;-72
2022/11/14 12:21:35;;;;;;;;;;;;;;;7.84;41.78;95097.22;5056951;28;19996;-73
2022/11/14 12:24:03;;;;;;;;;;;;;;;7.87;41.64;95110.13;5039739;28;19993;-74
2022/11/14 12:26:34;;;;;;;;;;;;;;;7.64;42.02;95110.03;5060163;28;20310;-74
2022/11/14 12:29:18;;;;;;;;;;;;;;;7.27;43.61;95123.72;5057587;28;19993;-72
2022/11/14 12:31:43;;;;;;;;;;;;;;;6.94;43.74;95126.41;5058822;28;19993;-74
2022/11/14 12:34:24;;;;;;;;;;;;;;;6.93;44.22;95122.13;5044979;28;19968;-73
2022/11/14 12:36:49;;;;;;;;;;;;;;;7.08;43.92;95111.69;5057091;28;19989;-74
2022/11/14 12:39:22;;;;;;;;;;;;;;;6.97;43.97;95106.75;5058596;28;20384;-73
2022/11/14 12:41:47;;;;;;;;;;;;;;;6.63;44.74;95098.81;5058957;28;19995;-73
2022/11/14 12:44:16;;;;;;;;;;;;;;;6.89;44.23;95089.03;5034131;28;20261;-73
2022/11/14 12:47:00;;;;;;;;;;;;;;;6.78;44.49;95090.22;5041603;28;19997;-72
2022/11/14 12:49:36;;;;;;;;;;;;;;;6.62;46.17;95094.53;5060446;28;20396;-73
2022/11/14 12:52:01;;;;;;;;;;;;;;;6.86;45.36;95087.56;5043890;28;20173;-74
2022/11/14 12:54:42;;;;;;;;;;;;;;;6.36;47.42;95086.75;5045897;28;20346;-74
2022/11/14 12:57:09;;;;;;;;;;;;;;;6.91;45.47;95086.22;5043264;28;20469;-72
2022/11/14 12:59:38;;;;;;;;;;;;;;;6.91;45.14;95078.28;5042207;28;20411;-74
2022/11/14 13:02:22;;;;;;;;;;;;;;;6.83;44.86;95069.38;5045726;28;19992;-71
2022/11/14 13:05:11;;;;;;;;;;;;;;;7.08;45.42;95065.84;5058036;28;19985;-74
2022/11/14 13:07:54;;;;;;;;;;;;;;;7.51;44.02;95060.22;5047748;28;20524;-72
2022/11/14 13:10:26;;;;;;;;;;;;;;;7.41;44.31;95055.13;5041687;28;20487;-72
2022/11/14 13:24:07;;;;;;;;;;;;;;;7.22;44.57;95041.34;5056920;28;20015;-74
2022/11/14 13:26:32;;;;;;;;;;;;;;;7.58;43.45;95040.00;5061853;28;19973;-74
2022/11/14 13:28:58;;;;;;;;;;;;;;;7.40;44.19;95038.44;5042217;28;20054;-74
2022/11/14 13:31:24;;;;;;;;;;;;;;;7.22;44.79;95041.34;5041073;28;19989;-72
2022/11/14 13:33:57;;;;;;;;;;;;;;;7.09;44.89;95031.28;5039440;28;20087;-74
2022/11/14 13:36:41;;;;;;;;;;;;;;;6.64;46.15;95031.69;5052767;28;20419;-74
2022/11/14 13:39:19;;;;;;;;;;;;;;;6.86;45.80;95039.94;5061478;28;20003;-72
2022/11/14 13:41:47;;;;;;;;;;;;;;;7.08;45.25;95034.94;5065927;28;20191;-75
2022/11/14 13:44:32;;;;;;;;;;;;;;;6.67;46.19;95038.50;5060736;28;20046;-75
2022/11/14 13:47:07;;;;;;;;;;;;;;;6.87;45.68;95030.19;5043470;28;20007;-73
2022/11/14 13:49:55;;;;;;;;;;;;;;;6.83;45.55;95032.31;5060081;28;20230;-75